Time;durP1;ratioP1;P1;durP2;ratioP2;P2;SDS_P1;SDS_P2;PMS_P1;PMS_P2;Temp;Humidity;BMP_temperature;BMP_pressure;BME280_temperature;BME280_humidity;BME280_pressure;Samples;Min_cycle;Max_cycle;Signal;HPM_P1;HPM_P2
2021/10/28 00:14:34;;;;;;;5.63;3.50;;;12.10;99.90;;;;;;5067435;28;20549;-80
2021/10/28 00:17:09;;;;;;;4.90;3.43;;;12.10;99.90;;;;;;5065836;28;20478;-78
2021/10/28 00:19:37;;;;;;;8.40;4.00;;;12.00;99.90;;;;;;5065340;28;20466;-79
2021/10/28 00:22:07;;;;;;;4.70;4.30;;;12.00;99.90;;;;;;5067462;28;20470;-79
2021/10/28 00:24:35;;;;;;;4.23;3.77;;;11.90;99.90;;;;;;5068227;28;21068;-80
2021/10/28 00:27:03;;;;;;;6.03;5.43;;;12.00;99.90;;;;;;5059717;28;20473;-79
2021/10/28 00:29:33;;;;;;;6.67;4.43;;;11.90;99.90;;;;;;5062071;28;20447;-79
2021/10/28 00:32:03;;;;;;;13.33;7.37;;;11.90;99.90;;;;;;5066259;28;20485;-79
2021/10/28 00:34:31;;;;;;;8.93;4.80;;;11.90;99.90;;;;;;5061930;28;20455;-79
2021/10/28 00:37:00;;;;;;;6.23;4.77;;;11.90;99.90;;;;;;5063163;28;20483;-80
2021/10/28 00:39:28;;;;;;;9.47;4.80;;;11.80;99.90;;;;;;5059306;28;20455;-80
2021/10/28 00:41:56;;;;;;;11.60;5.60;;;11.90;99.90;;;;;;5066630;28;20473;-79
2021/10/28 00:44:24;;;;;;;7.07;5.07;;;11.80;99.90;;;;;;5062932;28;20459;-79
2021/10/28 00:46:54;;;;;;;7.33;5.10;;;11.80;99.90;;;;;;5061323;28;20469;-79
2021/10/28 00:49:22;;;;;;;7.77;5.87;;;11.90;99.90;;;;;;5065629;28;20485;-79
2021/10/28 00:51:50;;;;;;;10.23;6.03;;;11.80;99.90;;;;;;5069330;28;20458;-79
2021/10/28 00:54:21;;;;;;;8.53;6.57;;;11.80;99.90;;;;;;5065462;28;20458;-79
2021/10/28 00:56:49;;;;;;;10.70;6.03;;;11.80;99.90;;;;;;5064410;28;20817;-79
2021/10/28 00:59:18;;;;;;;10.30;6.20;;;11.80;99.90;;;;;;5066030;28;20539;-79
2021/10/28 01:01:46;;;;;;;8.87;6.93;;;11.80;99.90;;;;;;5062715;28;20450;-79
2021/10/28 01:04:16;;;;;;;11.67;8.00;;;11.80;99.90;;;;;;5068859;28;20482;-79
2021/10/28 01:06:45;;;;;;;11.63;8.00;;;11.70;99.90;;;;;;5068129;28;20536;-79
2021/10/28 01:09:15;;;;;;;12.40;8.67;;;11.60;99.90;;;;;;5067528;28;20996;-79
2021/10/28 01:11:43;;;;;;;10.10;7.20;;;11.60;99.90;;;;;;5063930;28;20462;-80
2021/10/28 01:14:11;;;;;;;15.43;9.07;;;11.60;99.90;;;;;;5063682;28;21012;-80
2021/10/28 01:16:39;;;;;;;14.93;9.80;;;11.60;99.90;;;;;;5065951;28;20454;-80
2021/10/28 01:19:08;;;;;;;18.00;9.60;;;11.50;99.90;;;;;;5068976;28;20454;-79
2021/10/28 01:21:37;;;;;;;18.57;9.97;;;11.50;1.00;;;;;;5064139;28;20454;-79
2021/10/28 01:24:06;;;;;;;16.47;9.63;;;11.60;99.90;;;;;;5065972;28;20538;-78
2021/10/28 01:26:34;;;;;;;13.40;9.50;;;11.70;99.90;;;;;;5067943;28;20548;-79
2021/10/28 01:29:04;;;;;;;15.90;9.73;;;11.90;99.90;;;;;;5061764;28;20527;-78
2021/10/28 01:31:33;;;;;;;18.53;8.57;;;11.90;99.90;;;;;;5067561;28;20462;-78
2021/10/28 01:34:05;;;;;;;11.47;8.03;;;11.90;99.90;;;;;;5059708;28;20864;-80
2021/10/28 01:36:34;;;;;;;14.87;8.07;;;12.00;99.90;;;;;;5059902;28;20462;-78
2021/10/28 01:39:14;;;;;;;13.23;9.33;;;12.00;99.90;;;;;;5055377;28;20479;-79
2021/10/28 01:41:43;;;;;;;13.80;8.60;;;12.10;99.90;;;;;;5059653;28;20455;-79
2021/10/28 01:44:11;;;;;;;15.60;8.83;;;12.10;99.90;;;;;;5069414;28;20870;-78
2021/10/28 01:46:40;;;;;;;15.47;9.93;;;12.10;99.90;;;;;;5061376;28;20491;-77
2021/10/28 01:49:08;;;;;;;16.97;9.97;;;12.10;99.90;;;;;;5061608;28;20453;-78
2021/10/28 01:51:36;;;;;;;15.60;10.23;;;12.20;99.90;;;;;;5059602;28;20473;-78
2021/10/28 01:54:05;;;;;;;19.17;11.70;;;12.20;99.90;;;;;;5067591;28;20435;-79
2021/10/28 01:56:35;;;;;;;14.43;9.33;;;12.20;99.90;;;;;;5063492;28;20454;-78
2021/10/28 01:59:03;;;;;;;14.10;9.80;;;12.10;99.90;;;;;;5061559;28;20469;-78
2021/10/28 02:01:31;;;;;;;13.83;9.13;;;12.20;99.90;;;;;;5062211;28;20459;-79
2021/10/28 02:04:00;;;;;;;13.30;9.93;;;12.20;99.90;;;;;;5061506;28;20487;-79
2021/10/28 02:06:29;;;;;;;15.10;10.10;;;12.10;99.90;;;;;;5066405;28;20463;-79
2021/10/28 02:08:57;;;;;;;14.07;11.03;;;12.10;99.90;;;;;;5059246;28;20475;-80
2021/10/28 02:11:26;;;;;;;16.50;10.40;;;12.10;99.90;;;;;;5061504;28;20820;-79
2021/10/28 02:13:58;;;;;;;15.80;9.77;;;12.00;99.90;;;;;;5053779;28;20962;-79
2021/10/28 02:16:31;;;;;;;16.80;10.50;;;11.70;99.90;;;;;;5056135;28;20854;-79
2021/10/28 02:19:00;;;;;;;13.20;9.70;;;11.60;1.00;;;;;;5069366;28;20467;-79
2021/10/28 02:21:28;;;;;;;16.27;10.50;;;11.70;1.00;;;;;;5068674;28;20459;-78
2021/10/28 02:23:57;;;;;;;12.60;8.43;;;11.70;99.90;;;;;;5062701;28;20478;-78
2021/10/28 02:26:26;;;;;;;17.70;10.00;;;11.70;99.90;;;;;;5062019;28;20456;-78
2021/10/28 02:28:56;;;;;;;13.50;8.20;;;11.60;1.00;;;;;;5064972;28;20490;-79
2021/10/28 02:31:24;;;;;;;17.50;10.03;;;11.50;1.00;;;;;;5065186;28;20454;-79
2021/10/28 02:33:53;;;;;;;14.40;9.63;;;11.40;1.00;;;;;;5061194;28;20447;-78
2021/10/28 02:36:21;;;;;;;14.73;9.43;;;11.40;1.00;;;;;;5066917;28;20458;-78
2021/10/28 02:38:49;;;;;;;18.70;9.80;;;11.50;1.00;;;;;;5064920;28;20482;-79
2021/10/28 02:41:18;;;;;;;12.23;10.00;;;11.40;1.00;;;;;;5061550;28;20455;-79
2021/10/28 02:43:46;;;;;;;15.53;8.90;;;11.30;1.00;;;;;;5064937;28;20470;-79
2021/10/28 02:46:16;;;;;;;13.80;8.90;;;11.30;1.00;;;;;;5067819;28;21230;-79
2021/10/28 02:48:44;;;;;;;8.67;6.27;;;11.40;1.00;;;;;;5063643;28;21008;-80
2021/10/28 02:51:12;;;;;;;5.93;4.70;;;11.40;99.90;;;;;;5066376;28;20451;-78
2021/10/28 02:53:40;;;;;;;6.10;4.87;;;11.40;99.90;;;;;;5068258;28;20455;-77
2021/10/28 02:56:08;;;;;;;4.23;3.77;;;11.40;99.90;;;;;;5059614;28;20934;-78
2021/10/28 02:58:37;;;;;;;4.97;4.47;;;11.20;99.90;;;;;;5055375;28;20490;-79
2021/10/28 03:01:05;;;;;;;5.80;3.97;;;11.20;99.90;;;;;;5066500;28;20467;-78
2021/10/28 03:03:38;;;;;;;9.33;6.30;;;11.20;99.90;;;;;;5055380;28;20975;-78
2021/10/28 03:06:07;;;;;;;5.97;5.00;;;11.20;99.90;;;;;;5059017;28;20458;-79
2021/10/28 03:08:35;;;;;;;7.20;5.27;;;11.30;99.90;;;;;;5062981;28;20461;-78
2021/10/28 03:11:07;;;;;;;8.33;5.70;;;11.20;99.90;;;;;;5063769;28;20465;-78
2021/10/28 03:13:36;;;;;;;7.50;5.30;;;11.30;99.90;;;;;;5062204;28;20488;-78
2021/10/28 03:16:14;;;;;;;12.07;6.57;;;11.30;99.90;;;;;;5063517;28;20455;-78
2021/10/28 03:27:02;;;;;;;13.80;8.53;;;11.00;1.00;;;;;;5065989;28;21396;-78
2021/10/28 03:29:30;;;;;;;12.63;8.70;;;10.90;1.00;;;;;;5068096;28;20458;-78
2021/10/28 03:31:58;;;;;;;12.63;7.97;;;10.90;1.00;;;;;;5069520;28;20455;-79
2021/10/28 03:34:28;;;;;;;12.57;6.60;;;10.90;1.00;;;;;;5063200;28;20454;-78
2021/10/28 03:37:01;;;;;;;12.10;7.53;;;10.90;1.00;;;;;;5066700;28;20867;-79
2021/10/28 03:39:45;;;;;;;10.17;6.87;;;11.00;1.00;;;;;;5067388;28;20450;-80
2021/10/28 03:56:45;;;;;;;12.60;6.40;;;10.80;99.90;;;;;;5062864;28;20826;-78
2021/10/28 04:18:48;;;;;;;18.53;7.77;;;10.80;99.90;;;;;;5070922;28;20552;-78
2021/10/28 04:29:51;;;;;;;16.07;9.27;;;10.70;99.90;;;;;;5026789;28;20507;-79
2021/10/28 04:32:20;;;;;;;13.93;9.17;;;10.60;99.90;;;;;;5051266;28;20470;-79
2021/10/28 04:34:48;;;;;;;14.33;9.40;;;10.40;99.90;;;;;;5063962;28;20451;-77
2021/10/28 04:37:16;;;;;;;13.80;8.50;;;10.40;1.00;;;;;;5060987;28;20881;-76
2021/10/28 04:39:47;;;;;;;14.33;9.47;;;10.50;17.10;;;;;;5070803;28;20447;-76
2021/10/28 04:42:15;;;;;;;11.80;8.20;;;10.60;1.00;;;;;;5068471;28;20459;-76
2021/10/28 04:44:43;;;;;;;15.40;9.27;;;10.80;99.90;;;;;;5056301;28;20473;-77
2021/10/28 04:47:11;;;;;;;12.27;8.63;;;10.80;1.00;;;;;;5060203;28;20549;-76
2021/10/28 04:49:40;;;;;;;13.50;8.87;;;10.80;99.90;;;;;;5062102;28;20466;-76
2021/10/28 04:52:08;;;;;;;13.37;8.90;;;10.90;99.90;;;;;;5067804;28;20450;-75
2021/10/28 04:54:36;;;;;;;17.27;8.80;;;11.00;99.90;;;;;;5062493;28;20451;-76
2021/10/28 04:57:07;;;;;;;15.73;8.17;;;11.10;99.90;;;;;;5063445;28;21072;-76
2021/10/28 04:59:35;;;;;;;13.20;8.73;;;11.30;88.00;;;;;;5065378;28;20469;-77
2021/10/28 05:02:06;;;;;;;14.83;8.87;;;11.00;99.90;;;;;;5067442;28;20501;-77
2021/10/28 05:04:34;;;;;;;14.87;9.30;;;10.60;1.00;;;;;;5061671;28;20482;-77
2021/10/28 05:07:02;;;;;;;9.43;7.40;;;10.40;99.90;;;;;;5065391;28;20490;-76
2021/10/28 05:09:32;;;;;;;11.33;7.43;;;10.30;1.00;;;;;;5057338;28;20457;-76
2021/10/28 05:12:01;;;;;;;11.83;8.03;;;10.40;99.90;;;;;;5063862;28;20454;-76
2021/10/28 05:14:30;;;;;;;13.30;7.63;;;10.50;99.90;;;;;;5065651;28;20890;-76
2021/10/28 05:16:58;;;;;;;13.77;8.60;;;10.40;99.90;;;;;;5060939;28;20450;-76
2021/10/28 05:19:28;;;;;;;11.10;7.30;;;10.40;99.90;;;;;;5067574;28;20458;-78
2021/10/28 05:21:56;;;;;;;12.57;8.83;;;10.70;1.00;;;;;;5064121;28;20503;-76
2021/10/28 05:24:25;;;;;;;12.63;7.67;;;10.70;1.00;;;;;;5062111;28;20451;-76
2021/10/28 05:26:55;;;;;;;14.37;8.00;;;10.90;99.90;;;;;;5067367;28;20851;-76
2021/10/28 05:29:23;;;;;;;11.03;8.37;;;10.90;99.90;;;;;;5053897;28;20458;-76
2021/10/28 05:31:53;;;;;;;12.90;8.40;;;10.40;1.00;;;;;;5063999;28;20439;-76
2021/10/28 05:34:22;;;;;;;14.20;8.00;;;10.40;42.00;;;;;;5065618;28;20460;-76
2021/10/28 05:36:50;;;;;;;12.87;9.00;;;10.30;1.00;;;;;;5063386;28;20515;-77
2021/10/28 05:39:19;;;;;;;11.10;7.90;;;10.50;1.00;;;;;;5062128;28;20873;-76
2021/10/28 05:41:47;;;;;;;12.97;7.90;;;10.40;99.90;;;;;;5068668;28;20469;-76
2021/10/28 05:44:16;;;;;;;13.33;8.27;;;10.50;1.00;;;;;;5065119;28;20952;-76
2021/10/28 05:46:44;;;;;;;11.07;7.40;;;10.20;99.90;;;;;;5067483;28;20482;-76
2021/10/28 05:49:14;;;;;;;11.43;7.43;;;10.30;99.90;;;;;;5066352;28;20458;-76
2021/10/28 05:51:43;;;;;;;9.00;6.90;;;10.50;99.90;;;;;;5058200;28;20581;-76
2021/10/28 05:54:11;;;;;;;9.87;6.27;;;10.50;1.00;;;;;;5067064;28;20442;-76
2021/10/28 05:56:39;;;;;;;11.33;7.80;;;10.50;99.90;;;;;;5065427;28;20476;-77
2021/10/28 05:59:07;;;;;;;7.97;7.13;;;10.70;99.90;;;;;;5066707;28;20450;-77
2021/10/28 06:01:35;;;;;;;12.60;7.27;;;10.80;99.90;;;;;;5060854;28;21019;-77
2021/10/28 06:04:06;;;;;;;10.37;6.90;;;10.80;99.90;;;;;;5066164;28;20995;-76
2021/10/28 06:06:36;;;;;;;9.30;6.00;;;10.90;54.20;;;;;;5062757;28;20485;-76
2021/10/28 06:09:04;;;;;;;9.67;7.30;;;10.90;1.00;;;;;;5063753;28;20470;-76
2021/10/28 06:11:32;;;;;;;12.37;6.20;;;10.90;1.00;;;;;;5060407;28;20451;-75
2021/10/28 06:14:01;;;;;;;7.33;5.47;;;11.00;1.00;;;;;;5068805;28;20802;-76
2021/10/28 06:16:29;;;;;;;12.67;7.10;;;11.10;1.00;;;;;;5069548;28;20508;-77
2021/10/28 06:18:57;;;;;;;9.93;6.43;;;11.10;1.00;;;;;;5056102;28;20486;-76
2021/10/28 06:21:27;;;;;;;9.80;5.93;;;11.10;1.00;;;;;;5065574;28;20452;-76
2021/10/28 06:23:56;;;;;;;9.40;6.87;;;11.00;1.00;;;;;;5065406;28;20456;-77
2021/10/28 06:26:26;;;;;;;12.70;7.33;;;10.90;1.00;;;;;;5068755;28;20504;-76
2021/10/28 06:28:54;;;;;;;9.17;6.30;;;11.00;1.00;;;;;;5054435;28;20996;-76
2021/10/28 06:31:22;;;;;;;8.63;6.07;;;11.00;1.00;;;;;;5049054;28;20939;-76
2021/10/28 06:33:57;;;;;;;6.73;6.13;;;11.10;1.00;;;;;;5052150;28;20458;-76
2021/10/28 06:36:26;;;;;;;10.27;6.87;;;11.20;1.00;;;;;;5059080;28;20451;-77
2021/10/28 06:38:56;;;;;;;7.80;5.70;;;11.20;1.00;;;;;;5062861;28;20481;-76
2021/10/28 06:41:24;;;;;;;8.77;6.13;;;11.30;1.00;;;;;;5064654;28;20443;-75
2021/10/28 06:43:52;;;;;;;8.63;6.50;;;11.30;1.00;;;;;;5062077;28;20496;-76
2021/10/28 06:46:20;;;;;;;7.27;5.93;;;11.20;1.00;;;;;;5051272;28;20525;-77
2021/10/28 06:48:49;;;;;;;10.50;6.87;;;11.10;1.00;;;;;;5059489;28;21156;-76
2021/10/28 06:51:18;;;;;;;7.83;5.50;;;11.10;1.00;;;;;;5067100;28;20464;-75
2021/10/28 06:53:55;;;;;;;9.67;6.70;;;11.10;1.00;;;;;;5059866;28;20485;-76
2021/10/28 06:56:41;;;;;;;7.33;5.70;;;11.20;1.00;;;;;;5060418;28;20468;-76
2021/10/28 07:02:19;;;;;;;10.17;6.20;;;11.10;1.00;;;;;;5060592;28;20442;-76
2021/10/28 07:04:48;;;;;;;9.00;6.33;;;11.00;16.80;;;;;;5060104;28;20544;-76
2021/10/28 07:07:18;;;;;;;7.90;5.10;;;11.20;1.00;;;;;;5052411;28;20996;-76
2021/10/28 07:09:50;;;;;;;10.13;5.30;;;11.10;1.00;;;;;;5063747;28;20561;-76
2021/10/28 07:12:23;;;;;;;8.97;6.73;;;11.00;54.40;;;;;;5068256;28;20464;-77
2021/10/28 07:14:53;;;;;;;10.30;6.10;;;10.90;99.50;;;;;;5061511;28;20453;-77
2021/10/28 07:17:31;;;;;;;11.03;6.23;;;11.00;99.90;;;;;;5067936;28;20502;-76
2021/10/28 07:20:16;;;;;;;9.20;6.37;;;11.10;99.90;;;;;;5058118;28;20454;-76
2021/10/28 07:25:50;;;;;;;8.53;6.23;;;10.80;99.90;;;;;;5034232;28;20462;-76
2021/10/28 07:31:17;;;;;;;7.40;5.50;;;10.80;99.90;;;;;;5064573;28;20466;-77
2021/10/28 07:33:56;;;;;;;9.30;6.00;;;10.90;99.90;;;;;;5068224;28;20448;-76
2021/10/28 07:36:45;;;;;;;8.10;6.23;;;11.00;99.90;;;;;;5056679;28;20992;-76
2021/10/28 07:39:27;;;;;;;10.13;6.60;;;11.00;99.90;;;;;;5068811;28;20454;-76
2021/10/28 07:58:50;;;;;;;10.57;6.80;;;11.40;99.90;;;;;;5036878;28;20482;-76
2021/10/28 08:15:21;;;;;;;17.73;8.67;;;11.20;1.00;;;;;;5062826;28;20453;-77
2021/10/28 08:18:13;;;;;;;12.67;8.10;;;11.40;1.00;;;;;;5055762;28;20470;-77
2021/10/28 08:20:58;;;;;;;12.97;8.10;;;11.60;99.90;;;;;;5071569;28;20459;-77
2021/10/28 08:23:35;;;;;;;16.20;9.87;;;11.70;99.90;;;;;;5067658;28;20518;-75
2021/10/28 08:28:51;;;;;;;15.57;8.73;;;11.10;2.50;;;;;;5066942;28;20846;-77
2021/10/28 08:31:22;;;;;;;12.33;8.13;;;11.20;1.00;;;;;;5067057;28;20468;-76
2021/10/28 08:33:51;;;;;;;16.17;9.53;;;11.20;29.70;;;;;;5066227;28;20759;-77
2021/10/28 08:36:27;;;;;;;16.23;9.27;;;11.20;99.90;;;;;;5066595;28;20455;-77
2021/10/28 08:38:56;;;;;;;14.07;8.53;;;11.40;1.00;;;;;;5069078;28;20473;-77
2021/10/28 08:41:25;;;;;;;14.70;9.10;;;11.80;1.00;;;;;;5065388;28;20435;-77
2021/10/28 08:43:55;;;;;;;13.40;8.90;;;12.20;99.90;;;;;;5067203;28;20458;-78
2021/10/28 08:46:25;;;;;;;18.20;9.07;;;12.60;55.50;;;;;;5063559;28;20462;-77
2021/10/28 08:48:58;;;;;;;9.33;6.83;;;12.90;1.00;;;;;;5068850;28;20458;-77
2021/10/28 08:51:34;;;;;;;12.47;7.83;;;13.00;1.00;;;;;;5069867;28;20950;-74
2021/10/28 08:54:31;;;;;;;16.07;8.97;;;13.30;1.00;;;;;;5060942;28;20457;-77
2021/10/28 08:57:18;;;;;;;16.17;8.93;;;13.30;1.00;;;;;;5062365;28;20458;-77
2021/10/28 09:25:35;;;;;;;11.90;9.20;;;15.20;99.90;;;;;;5068212;28;20464;-76
2021/10/28 09:28:10;;;;;;;14.33;10.37;;;15.40;99.90;;;;;;5053813;28;20939;-77
2021/10/28 09:30:46;;;;;;;12.53;8.13;;;15.50;99.90;;;;;;5062846;28;20456;-77
2021/10/28 09:33:22;;;;;;;14.30;8.70;;;15.70;99.90;;;;;;5065183;28;20451;-77
2021/10/28 09:36:11;;;;;;;14.43;9.03;;;15.90;99.90;;;;;;5062605;28;20461;-78
2021/10/28 09:44:43;;;;;;;10.83;7.27;;;16.40;99.90;;;;;;5056761;28;20550;-77
2021/10/28 09:47:34;;;;;;;11.27;7.00;;;16.40;99.90;;;;;;5057475;28;20496;-77
2021/10/28 09:50:14;;;;;;;12.20;7.60;;;16.50;99.90;;;;;;5070329;28;21001;-77
2021/10/28 09:52:53;;;;;;;12.27;7.40;;;16.60;99.90;;;;;;5064372;28;20894;-76
2021/10/28 09:58:24;;;;;;;10.93;8.00;;;16.80;99.90;;;;;;5063568;28;20486;-77
2021/10/28 10:00:53;;;;;;;12.30;7.80;;;16.90;99.90;;;;;;5063232;28;20473;-77
2021/10/28 10:03:26;;;;;;;10.07;7.63;;;17.00;99.90;;;;;;5059110;28;20533;-76
2021/10/28 10:06:01;;;;;;;14.10;9.10;;;17.20;99.90;;;;;;5058648;28;20543;-77
2021/10/28 10:08:30;;;;;;;12.30;7.57;;;17.30;99.90;;;;;;5055048;28;20482;-76
2021/10/28 10:11:00;;;;;;;11.90;8.30;;;17.40;99.90;;;;;;5058542;28;20927;-77
2021/10/28 10:13:30;;;;;;;11.43;8.80;;;17.50;99.90;;;;;;5060876;28;20862;-76
2021/10/28 10:16:00;;;;;;;13.00;7.70;;;17.60;99.90;;;;;;5063139;28;20826;-77
2021/10/28 10:18:30;;;;;;;10.47;8.03;;;17.60;99.90;;;;;;5063828;28;20875;-77
2021/10/28 10:21:03;;;;;;;7.33;6.50;;;17.70;99.90;;;;;;5068683;28;20457;-77
2021/10/28 10:26:49;;;;;;;10.90;7.40;;;17.90;99.90;;;;;;5057489;28;20469;-77
2021/10/28 10:29:55;;;;;;;8.20;7.07;;;18.10;99.90;;;;;;5068010;28;20450;-77
2021/10/28 11:23:14;;;;;;;7.87;6.73;;;19.30;99.90;;;;;;5067371;28;20458;-75
2021/10/28 12:45:51;;;;;;;4.10;3.70;;;19.20;99.90;;;;;;5024279;28;20212;-77
2021/10/28 12:51:27;;;;;;;5.63;3.53;;;19.30;99.90;;;;;;5031891;28;20460;-77
2021/10/28 12:54:14;;;;;;;6.30;4.30;;;19.40;99.90;;;;;;5068133;28;20467;-77
2021/10/28 12:56:50;;;;;;;6.50;4.93;;;19.30;99.90;;;;;;5061169;28;20462;-77
2021/10/28 13:02:44;;;;;;;5.10;4.10;;;19.40;99.90;;;;;;5062167;28;20501;-77
2021/10/28 13:36:06;;;;;;;6.73;4.23;;;19.60;99.90;;;;;;5069151;28;20458;-78
2021/10/28 13:49:56;;;;;;;4.73;3.30;;;19.70;99.90;;;;;;5070510;28;20532;-78
2021/10/28 13:52:43;;;;;;;3.90;3.37;;;19.70;99.90;;;;;;5066539;28;20455;-78
2021/10/28 13:58:50;;;;;;;4.30;2.40;;;19.70;99.90;;;;;;5063431;28;20466;-78
2021/10/28 14:23:39;;;;;;;3.43;2.40;;;19.90;99.90;;;;;;5010638;28;20468;-77
2021/10/28 15:02:47;;;;;;;4.00;1.97;;;19.40;99.90;;;;;;5059676;28;20501;-78
2021/10/28 15:30:33;;;;;;;4.07;2.60;;;19.30;99.90;;;;;;5016690;28;20492;-78
2021/10/28 15:35:56;;;;;;;2.23;1.97;;;19.20;99.90;;;;;;4966162;28;20462;-78
2021/10/28 15:38:35;;;;;;;2.50;1.83;;;19.20;99.90;;;;;;5066983;28;20512;-77
2021/10/28 15:41:29;;;;;;;1.93;1.80;;;19.20;99.90;;;;;;5056863;28;20452;-78
2021/10/28 16:01:34;;;;;;;2.50;2.10;;;18.90;99.90;;;;;;5113314;27;20541;-79
2021/10/28 16:23:20;;;;;;;7.57;4.47;;;18.10;99.90;;;;;;5093241;28;20456;-78
2021/10/28 16:25:48;;;;;;;4.33;3.90;;;18.10;99.90;;;;;;5097315;28;20510;-79
2021/10/28 16:28:17;;;;;;;6.00;4.90;;;18.00;99.90;;;;;;5096869;28;20435;-78
2021/10/28 16:30:47;;;;;;;6.93;4.33;;;18.00;99.90;;;;;;5100607;28;20199;-78
2021/10/28 16:33:16;;;;;;;10.17;5.00;;;18.00;99.90;;;;;;5102565;28;20552;-78
2021/10/28 16:35:45;;;;;;;7.03;3.90;;;17.90;99.90;;;;;;5095048;28;20464;-78
2021/10/28 16:38:14;;;;;;;5.97;5.00;;;17.90;99.90;;;;;;5096211;28;20478;-79
2021/10/28 16:40:42;;;;;;;6.53;4.30;;;17.90;99.90;;;;;;5091379;28;20480;-78
2021/10/28 16:43:10;;;;;;;6.20;5.13;;;17.80;99.90;;;;;;5092104;28;20958;-78
2021/10/28 16:45:39;;;;;;;6.63;4.60;;;17.80;99.90;;;;;;5099343;28;20458;-78
2021/10/28 16:48:08;;;;;;;6.60;4.60;;;17.80;99.90;;;;;;5093006;28;20526;-78
2021/10/28 16:50:37;;;;;;;4.17;3.57;;;17.80;99.90;;;;;;5095478;28;20444;-77
2021/10/28 16:53:07;;;;;;;5.40;3.53;;;17.80;99.90;;;;;;5097359;28;20456;-77
2021/10/28 16:55:55;;;;;;;7.93;3.97;;;18.00;99.90;;;;;;5097899;28;20455;-78
2021/10/28 16:58:24;;;;;;;5.43;3.20;;;17.70;99.90;;;;;;5102540;28;20482;-78
2021/10/28 17:00:53;;;;;;;3.97;3.53;;;17.60;99.90;;;;;;5096650;28;20500;-78
2021/10/28 17:03:22;;;;;;;3.90;3.30;;;17.50;99.90;;;;;;5096355;28;20796;-78
2021/10/28 17:05:52;;;;;;;3.73;3.03;;;17.50;99.90;;;;;;5097424;28;20458;-77
2021/10/28 17:08:20;;;;;;;4.70;3.33;;;17.40;99.90;;;;;;5088651;28;21786;-78
2021/10/28 17:10:48;;;;;;;7.43;3.73;;;17.40;99.90;;;;;;5088531;28;20461;-78
2021/10/28 17:13:16;;;;;;;4.27;2.83;;;17.30;99.90;;;;;;5084583;28;20464;-78
2021/10/28 17:15:44;;;;;;;4.70;3.90;;;17.30;99.90;;;;;;5086643;28;21153;-78
2021/10/28 17:18:13;;;;;;;3.23;2.93;;;17.10;99.90;;;;;;5085007;28;21123;-78
2021/10/28 17:20:41;;;;;;;4.73;3.43;;;17.10;99.90;;;;;;5077728;28;20476;-77
2021/10/28 17:23:13;;;;;;;3.53;3.10;;;17.10;99.90;;;;;;5084765;28;20455;-77
2021/10/28 17:25:45;;;;;;;4.40;3.77;;;17.10;99.90;;;;;;5085678;28;21192;-78
2021/10/28 17:28:13;;;;;;;3.97;3.03;;;17.10;99.90;;;;;;5080523;28;20462;-78
2021/10/28 17:30:41;;;;;;;3.20;2.90;;;17.10;99.90;;;;;;5081000;28;20975;-78
2021/10/28 17:33:10;;;;;;;6.77;4.33;;;17.10;99.90;;;;;;5074881;28;20449;-77
2021/10/28 17:35:38;;;;;;;8.23;3.77;;;17.10;99.90;;;;;;5076790;28;20450;-80
2021/10/28 17:38:06;;;;;;;3.43;3.17;;;17.10;99.90;;;;;;5082471;28;20496;-79
2021/10/28 17:40:36;;;;;;;4.70;4.20;;;16.90;99.90;;;;;;5083172;28;20475;-79
2021/10/28 17:43:10;;;;;;;5.17;3.80;;;16.90;99.90;;;;;;5080670;28;20464;-79
2021/10/28 17:45:39;;;;;;;6.03;4.80;;;16.80;99.90;;;;;;5081491;28;20460;-80
2021/10/28 17:48:08;;;;;;;3.93;3.53;;;16.70;99.90;;;;;;5084205;28;20503;-80
2021/10/28 17:50:38;;;;;;;4.33;3.10;;;16.70;99.90;;;;;;5089766;28;20447;-79
2021/10/28 17:53:06;;;;;;;3.93;3.43;;;16.60;99.90;;;;;;5087063;28;20451;-81
2021/10/28 17:55:37;;;;;;;4.73;3.93;;;16.60;99.90;;;;;;5082183;28;20947;-80
2021/10/28 17:58:06;;;;;;;6.73;3.83;;;16.50;99.90;;;;;;5072624;28;20494;-81
2021/10/28 18:00:35;;;;;;;3.93;3.40;;;16.40;99.90;;;;;;5084781;28;20485;-79
2021/10/28 18:03:04;;;;;;;5.10;2.90;;;16.30;99.90;;;;;;5076725;28;20464;-80
2021/10/28 18:05:40;;;;;;;4.10;3.70;;;16.30;99.90;;;;;;5086291;28;20789;-81
2021/10/28 18:08:09;;;;;;;6.00;3.93;;;16.20;99.90;;;;;;5074799;28;20482;-80
2021/10/28 18:10:39;;;;;;;4.93;4.07;;;16.10;99.90;;;;;;5088969;28;21118;-80
2021/10/28 18:13:08;;;;;;;4.53;3.77;;;16.10;99.90;;;;;;5080112;28;20464;-80
2021/10/28 18:15:36;;;;;;;4.83;4.33;;;16.00;99.90;;;;;;5081513;28;20465;-80
2021/10/28 18:18:06;;;;;;;7.90;4.47;;;16.00;99.90;;;;;;5077694;28;21013;-80
2021/10/28 18:20:51;;;;;;;5.77;3.73;;;15.90;99.90;;;;;;5083907;28;20473;-80
2021/10/28 18:23:38;;;;;;;5.63;4.77;;;15.90;99.90;;;;;;5081971;28;20484;-80
2021/10/28 18:26:08;;;;;;;4.53;4.00;;;15.80;99.90;;;;;;5087769;28;20446;-80
2021/10/28 18:28:36;;;;;;;6.77;4.80;;;15.80;99.90;;;;;;5085862;28;20476;-80
2021/10/28 18:31:05;;;;;;;8.07;5.00;;;15.70;99.90;;;;;;5081342;28;20538;-80
2021/10/28 18:33:33;;;;;;;7.27;4.63;;;15.70;99.90;;;;;;5076827;28;20485;-80
2021/10/28 18:36:02;;;;;;;8.17;5.20;;;15.60;99.90;;;;;;5080758;28;20449;-80
2021/10/28 18:38:32;;;;;;;5.60;5.10;;;15.60;99.90;;;;;;5078213;28;20486;-80
2021/10/28 18:41:01;;;;;;;7.07;5.53;;;15.50;99.90;;;;;;5086999;28;20462;-80
2021/10/28 18:43:31;;;;;;;7.20;5.07;;;15.50;99.90;;;;;;5087449;28;20462;-80
2021/10/28 18:46:00;;;;;;;7.77;6.03;;;15.50;99.90;;;;;;5082186;28;20527;-81
2021/10/28 18:48:28;;;;;;;8.30;5.63;;;15.50;99.90;;;;;;5087948;28;20481;-80
2021/10/28 18:50:58;;;;;;;9.17;6.40;;;15.40;99.90;;;;;;5091071;28;20438;-81
2021/10/28 18:53:27;;;;;;;7.13;4.73;;;15.40;99.90;;;;;;5085183;28;20973;-79
2021/10/28 18:55:57;;;;;;;9.07;6.67;;;15.30;99.90;;;;;;5091863;28;20867;-80
2021/10/28 18:58:25;;;;;;;6.73;5.00;;;15.30;99.90;;;;;;5089241;28;20480;-80
2021/10/28 19:00:55;;;;;;;6.00;5.17;;;15.20;99.90;;;;;;5091202;28;20488;-79
2021/10/28 19:03:23;;;;;;;6.33;4.60;;;15.20;99.90;;;;;;5077033;28;20446;-79
2021/10/28 19:05:54;;;;;;;6.47;5.77;;;15.20;99.90;;;;;;5085198;28;20454;-79
2021/10/28 19:08:23;;;;;;;6.13;4.53;;;15.20;99.90;;;;;;5079226;28;20477;-78
2021/10/28 19:10:52;;;;;;;7.20;5.00;;;15.20;99.90;;;;;;5081841;28;20467;-79
2021/10/28 19:13:21;;;;;;;6.80;5.50;;;15.10;99.90;;;;;;5086030;28;20800;-79
2021/10/28 19:15:49;;;;;;;10.27;5.70;;;15.10;99.90;;;;;;5089443;28;20441;-80
2021/10/28 19:18:19;;;;;;;7.03;5.60;;;15.00;99.90;;;;;;5093381;28;20473;-80
2021/10/28 19:20:47;;;;;;;6.37;5.77;;;15.00;99.90;;;;;;5072964;28;20482;-79
2021/10/28 19:23:16;;;;;;;7.37;5.93;;;14.90;99.90;;;;;;5081093;28;20455;-79
2021/10/28 19:25:44;;;;;;;8.90;6.37;;;14.90;99.90;;;;;;5086727;28;20551;-79
2021/10/28 19:28:13;;;;;;;9.47;7.00;;;14.90;99.90;;;;;;5088352;28;20559;-79
2021/10/28 19:30:44;;;;;;;8.50;7.47;;;14.90;99.90;;;;;;5085714;28;20476;-79
2021/10/28 19:33:15;;;;;;;15.03;8.10;;;14.80;99.90;;;;;;5086212;28;20440;-79
2021/10/28 19:35:48;;;;;;;9.33;7.60;;;14.80;99.90;;;;;;5087598;28;20542;-79
2021/10/28 19:38:29;;;;;;;10.00;6.80;;;14.80;99.90;;;;;;5087686;28;20600;-78
2021/10/28 19:41:11;;;;;;;8.10;6.93;;;14.70;99.90;;;;;;5085795;28;20475;-79
2021/10/28 19:46:26;;;;;;;8.70;6.83;;;14.70;99.90;;;;;;5082166;28;20453;-79
2021/10/28 19:48:56;;;;;;;10.17;8.03;;;14.60;99.90;;;;;;5085964;28;20477;-80
2021/10/28 19:51:26;;;;;;;7.60;6.73;;;14.60;99.90;;;;;;5085930;28;20458;-81
2021/10/28 19:53:55;;;;;;;9.50;7.03;;;14.50;99.90;;;;;;5084729;28;20679;-80
2021/10/28 19:56:24;;;;;;;7.90;6.60;;;14.60;99.90;;;;;;5083431;28;20455;-80
2021/10/28 19:58:56;;;;;;;13.40;8.20;;;14.50;99.90;;;;;;5076943;28;20490;-80
2021/10/28 20:01:39;;;;;;;11.05;9.00;;;14.50;99.90;;;;;;5084358;28;20443;-81
2021/10/28 20:07:11;;;;;;;10.03;7.93;;;14.50;99.90;;;;;;5074931;28;20506;-79
2021/10/28 20:15:31;;;;;;;9.40;7.53;;;14.30;99.90;;;;;;5084051;28;20498;-80
2021/10/28 20:20:45;;;;;;;11.43;8.27;;;14.30;99.90;;;;;;5084861;28;20482;-80
2021/10/28 20:23:15;;;;;;;11.57;8.23;;;14.30;99.90;;;;;;5084878;28;20545;-80
2021/10/28 20:25:43;;;;;;;11.60;7.50;;;14.20;99.90;;;;;;5085464;28;21573;-80
2021/10/28 20:28:13;;;;;;;11.70;7.60;;;14.20;99.90;;;;;;5103563;28;20494;-80
2021/10/28 20:30:50;;;;;;;11.17;8.27;;;14.20;99.90;;;;;;5081082;28;20546;-80
2021/10/28 20:33:19;;;;;;;13.27;8.83;;;14.10;99.90;;;;;;5076050;28;20451;-79
2021/10/28 20:36:10;;;;;;;16.80;8.63;;;14.00;99.90;;;;;;5084921;28;20450;-79
2021/10/28 20:38:39;;;;;;;12.83;7.90;;;14.00;99.90;;;;;;5087265;28;20507;-78
2021/10/28 20:41:08;;;;;;;12.70;9.03;;;14.00;99.90;;;;;;5080446;28;20457;-79
2021/10/28 20:43:37;;;;;;;15.23;9.57;;;14.00;99.90;;;;;;5084080;28;20468;-79
2021/10/28 20:46:06;;;;;;;12.30;9.70;;;13.90;99.90;;;;;;5082408;28;20966;-80
2021/10/28 20:48:38;;;;;;;10.10;8.70;;;13.90;99.90;;;;;;5085578;28;21301;-80